sensor_id;sensor_type;location;lat;lon;timestamp;P1;durP1;ratioP1;P2;durP2;ratioP2
36283;SDS011;56085;48.910;9.478;2023-07-30T00:02:14;4.03;;;2.33;;
36283;SDS011;56085;48.910;9.478;2023-07-30T00:04:40;3.97;;;2.20;;
36283;SDS011;56085;48.910;9.478;2023-07-30T00:07:05;3.03;;;1.85;;
36283;SDS011;56085;48.910;9.478;2023-07-30T00:09:31;2.78;;;1.77;;
36283;SDS011;56085;48.910;9.478;2023-07-30T00:11:56;3.05;;;1.38;;
36283;SDS011;56085;48.910;9.478;2023-07-30T00:14:21;3.10;;;1.30;;
36283;SDS011;56085;48.910;9.478;2023-07-30T00:16:46;2.28;;;1.10;;
36283;SDS011;56085;48.910;9.478;2023-07-30T00:19:12;2.40;;;1.00;;
36283;SDS011;56085;48.910;9.478;2023-07-30T00:21:37;1.83;;;1.00;;
36283;SDS011;56085;48.910;9.478;2023-07-30T00:24:02;2.22;;;0.95;;
36283;SDS011;56085;48.910;9.478;2023-07-30T00:26:28;2.70;;;1.10;;
36283;SDS011;56085;48.910;9.478;2023-07-30T00:28:54;1.70;;;0.90;;
36283;SDS011;56085;48.910;9.478;2023-07-30T00:31:20;1.40;;;0.70;;
36283;SDS011;56085;48.910;9.478;2023-07-30T00:33:45;1.90;;;0.65;;
36283;SDS011;56085;48.910;9.478;2023-07-30T00:36:10;1.92;;;0.98;;
36283;SDS011;56085;48.910;9.478;2023-07-30T00:38:36;1.13;;;0.68;;
36283;SDS011;56085;48.910;9.478;2023-07-30T00:41:01;1.00;;;0.70;;
36283;SDS011;56085;48.910;9.478;2023-07-30T00:43:26;3.70;;;0.88;;
36283;SDS011;56085;48.910;9.478;2023-07-30T00:45:51;3.20;;;0.80;;
36283;SDS011;56085;48.910;9.478;2023-07-30T00:48:17;0.98;;;0.60;;
36283;SDS011;56085;48.910;9.478;2023-07-30T00:50:42;1.23;;;0.52;;
36283;SDS011;56085;48.910;9.478;2023-07-30T00:53:08;1.13;;;0.57;;
36283;SDS011;56085;48.910;9.478;2023-07-30T00:55:34;1.05;;;0.40;;
36283;SDS011;56085;48.910;9.478;2023-07-30T00:58:00;2.13;;;0.70;;
36283;SDS011;56085;48.910;9.478;2023-07-30T01:00:27;1.55;;;0.80;;
36283;SDS011;56085;48.910;9.478;2023-07-30T01:02:53;1.33;;;0.75;;
36283;SDS011;56085;48.910;9.478;2023-07-30T01:05:19;1.55;;;0.88;;
36283;SDS011;56085;48.910;9.478;2023-07-30T01:07:45;4.07;;;0.95;;
36283;SDS011;56085;48.910;9.478;2023-07-30T01:10:10;2.83;;;1.02;;
36283;SDS011;56085;48.910;9.478;2023-07-30T01:12:35;1.98;;;0.80;;
36283;SDS011;56085;48.910;9.478;2023-07-30T01:15:02;1.27;;;0.70;;
36283;SDS011;56085;48.910;9.478;2023-07-30T01:17:29;1.20;;;0.80;;
36283;SDS011;56085;48.910;9.478;2023-07-30T01:19:54;3.35;;;0.98;;
36283;SDS011;56085;48.910;9.478;2023-07-30T01:22:20;0.90;;;0.52;;
36283;SDS011;56085;48.910;9.478;2023-07-30T01:24:47;1.58;;;0.73;;
36283;SDS011;56085;48.910;9.478;2023-07-30T01:27:14;1.77;;;0.95;;
36283;SDS011;56085;48.910;9.478;2023-07-30T01:32:16;1.58;;;0.85;;
36283;SDS011;56085;48.910;9.478;2023-07-30T01:34:47;5.07;;;0.90;;
36283;SDS011;56085;48.910;9.478;2023-07-30T01:37:17;3.17;;;0.77;;
36283;SDS011;56085;48.910;9.478;2023-07-30T01:39:42;2.55;;;0.98;;
36283;SDS011;56085;48.910;9.478;2023-07-30T01:42:11;1.55;;;0.80;;
36283;SDS011;56085;48.910;9.478;2023-07-30T01:44:37;1.05;;;0.75;;
36283;SDS011;56085;48.910;9.478;2023-07-30T01:47:02;1.80;;;0.90;;
36283;SDS011;56085;48.910;9.478;2023-07-30T01:49:28;1.35;;;0.80;;
36283;SDS011;56085;48.910;9.478;2023-07-30T01:51:53;3.70;;;1.25;;
36283;SDS011;56085;48.910;9.478;2023-07-30T01:54:18;1.67;;;0.80;;
36283;SDS011;56085;48.910;9.478;2023-07-30T01:56:43;1.98;;;0.90;;
36283;SDS011;56085;48.910;9.478;2023-07-30T01:59:09;0.82;;;0.60;;
36283;SDS011;56085;48.910;9.478;2023-07-30T02:01:34;1.77;;;0.85;;
36283;SDS011;56085;48.910;9.478;2023-07-30T02:03:59;1.42;;;0.90;;
36283;SDS011;56085;48.910;9.478;2023-07-30T02:06:25;1.20;;;0.60;;
36283;SDS011;56085;48.910;9.478;2023-07-30T02:08:50;1.48;;;0.70;;
36283;SDS011;56085;48.910;9.478;2023-07-30T02:11:15;1.00;;;0.50;;
36283;SDS011;56085;48.910;9.478;2023-07-30T02:13:40;0.75;;;0.52;;
36283;SDS011;56085;48.910;9.478;2023-07-30T02:16:06;1.10;;;0.68;;
36283;SDS011;56085;48.910;9.478;2023-07-30T02:18:31;1.92;;;1.02;;
36283;SDS011;56085;48.910;9.478;2023-07-30T02:20:56;2.05;;;1.10;;
36283;SDS011;56085;48.910;9.478;2023-07-30T02:23:22;2.65;;;1.02;;
36283;SDS011;56085;48.910;9.478;2023-07-30T02:25:47;1.27;;;0.90;;
36283;SDS011;56085;48.910;9.478;2023-07-30T02:28:12;4.15;;;1.40;;
36283;SDS011;56085;48.910;9.478;2023-07-30T02:30:37;2.03;;;1.15;;
36283;SDS011;56085;48.910;9.478;2023-07-30T02:33:03;3.88;;;1.00;;
36283;SDS011;56085;48.910;9.478;2023-07-30T02:35:28;3.38;;;1.27;;
36283;SDS011;56085;48.910;9.478;2023-07-30T02:37:53;2.72;;;1.20;;
36283;SDS011;56085;48.910;9.478;2023-07-30T02:40:18;2.65;;;1.13;;
36283;SDS011;56085;48.910;9.478;2023-07-30T02:42:44;7.50;;;1.30;;
36283;SDS011;56085;48.910;9.478;2023-07-30T02:45:09;2.92;;;1.10;;
36283;SDS011;56085;48.910;9.478;2023-07-30T02:47:35;3.17;;;0.90;;
36283;SDS011;56085;48.910;9.478;2023-07-30T02:50:01;2.33;;;1.45;;
36283;SDS011;56085;48.910;9.478;2023-07-30T02:52:28;1.67;;;1.08;;
36283;SDS011;56085;48.910;9.478;2023-07-30T02:54:53;3.65;;;1.75;;
36283;SDS011;56085;48.910;9.478;2023-07-30T02:57:18;2.53;;;1.30;;
36283;SDS011;56085;48.910;9.478;2023-07-30T02:59:44;3.20;;;1.40;;
36283;SDS011;56085;48.910;9.478;2023-07-30T03:02:09;2.10;;;1.17;;
36283;SDS011;56085;48.910;9.478;2023-07-30T03:04:34;2.25;;;1.52;;
36283;SDS011;56085;48.910;9.478;2023-07-30T03:07:00;1.95;;;1.35;;
36283;SDS011;56085;48.910;9.478;2023-07-30T03:09:25;5.45;;;1.55;;
36283;SDS011;56085;48.910;9.478;2023-07-30T03:11:50;2.05;;;1.23;;
36283;SDS011;56085;48.910;9.478;2023-07-30T03:14:16;3.58;;;1.27;;
36283;SDS011;56085;48.910;9.478;2023-07-30T03:16:41;5.43;;;1.17;;
36283;SDS011;56085;48.910;9.478;2023-07-30T03:19:06;5.93;;;0.90;;
36283;SDS011;56085;48.910;9.478;2023-07-30T03:21:32;1.58;;;0.93;;
36283;SDS011;56085;48.910;9.478;2023-07-30T03:23:57;2.42;;;1.05;;
36283;SDS011;56085;48.910;9.478;2023-07-30T03:26:22;1.98;;;1.30;;
36283;SDS011;56085;48.910;9.478;2023-07-30T03:28:48;2.35;;;1.10;;
36283;SDS011;56085;48.910;9.478;2023-07-30T03:31:13;2.83;;;1.45;;
36283;SDS011;56085;48.910;9.478;2023-07-30T03:33:39;1.23;;;0.90;;
36283;SDS011;56085;48.910;9.478;2023-07-30T03:36:08;2.65;;;0.95;;
36283;SDS011;56085;48.910;9.478;2023-07-30T03:38:34;3.78;;;0.90;;
36283;SDS011;56085;48.910;9.478;2023-07-30T03:41:00;1.33;;;0.90;;
36283;SDS011;56085;48.910;9.478;2023-07-30T03:43:25;1.70;;;1.00;;
36283;SDS011;56085;48.910;9.478;2023-07-30T03:45:50;2.78;;;1.33;;
36283;SDS011;56085;48.910;9.478;2023-07-30T03:48:15;2.13;;;1.20;;
36283;SDS011;56085;48.910;9.478;2023-07-30T03:50:40;1.25;;;0.80;;
36283;SDS011;56085;48.910;9.478;2023-07-30T03:53:06;1.38;;;1.00;;
36283;SDS011;56085;48.910;9.478;2023-07-30T03:55:31;2.40;;;1.23;;
36283;SDS011;56085;48.910;9.478;2023-07-30T03:57:56;1.90;;;1.25;;
36283;SDS011;56085;48.910;9.478;2023-07-30T04:00:23;2.28;;;1.40;;
36283;SDS011;56085;48.910;9.478;2023-07-30T04:02:48;3.10;;;1.60;;
36283;SDS011;56085;48.910;9.478;2023-07-30T04:05:13;4.22;;;1.60;;
36283;SDS011;56085;48.910;9.478;2023-07-30T04:07:39;2.90;;;1.50;;
36283;SDS011;56085;48.910;9.478;2023-07-30T04:10:04;2.88;;;1.23;;
36283;SDS011;56085;48.910;9.478;2023-07-30T04:12:30;5.15;;;1.23;;
36283;SDS011;56085;48.910;9.478;2023-07-30T04:14:55;3.13;;;1.70;;
36283;SDS011;56085;48.910;9.478;2023-07-30T04:17:20;4.10;;;2.60;;
36283;SDS011;56085;48.910;9.478;2023-07-30T04:19:46;3.72;;;1.52;;
36283;SDS011;56085;48.910;9.478;2023-07-30T04:22:11;6.22;;;1.55;;
36283;SDS011;56085;48.910;9.478;2023-07-30T04:24:36;4.40;;;1.92;;
36283;SDS011;56085;48.910;9.478;2023-07-30T04:27:01;3.80;;;1.55;;
36283;SDS011;56085;48.910;9.478;2023-07-30T04:29:27;6.03;;;3.75;;
36283;SDS011;56085;48.910;9.478;2023-07-30T04:31:53;8.15;;;4.47;;
36283;SDS011;56085;48.910;9.478;2023-07-30T04:34:18;5.40;;;2.40;;
36283;SDS011;56085;48.910;9.478;2023-07-30T04:36:43;2.38;;;1.35;;
36283;SDS011;56085;48.910;9.478;2023-07-30T04:39:08;5.75;;;3.08;;
36283;SDS011;56085;48.910;9.478;2023-07-30T04:41:34;8.73;;;4.88;;
36283;SDS011;56085;48.910;9.478;2023-07-30T04:43:59;5.43;;;2.55;;
36283;SDS011;56085;48.910;9.478;2023-07-30T04:46:24;5.10;;;2.80;;
36283;SDS011;56085;48.910;9.478;2023-07-30T04:48:50;6.50;;;1.80;;
36283;SDS011;56085;48.910;9.478;2023-07-30T04:51:16;3.25;;;1.55;;
36283;SDS011;56085;48.910;9.478;2023-07-30T04:53:41;2.58;;;1.20;;
36283;SDS011;56085;48.910;9.478;2023-07-30T04:56:06;2.38;;;1.33;;
36283;SDS011;56085;48.910;9.478;2023-07-30T04:58:32;6.25;;;2.58;;
36283;SDS011;56085;48.910;9.478;2023-07-30T05:00:57;3.63;;;2.00;;
36283;SDS011;56085;48.910;9.478;2023-07-30T05:03:22;3.45;;;1.88;;
36283;SDS011;56085;48.910;9.478;2023-07-30T05:05:47;6.80;;;1.65;;
36283;SDS011;56085;48.910;9.478;2023-07-30T05:08:13;3.33;;;1.77;;
36283;SDS011;56085;48.910;9.478;2023-07-30T05:10:38;6.65;;;2.10;;
36283;SDS011;56085;48.910;9.478;2023-07-30T05:13:03;3.25;;;1.70;;
36283;SDS011;56085;48.910;9.478;2023-07-30T05:15:29;3.95;;;1.55;;
36283;SDS011;56085;48.910;9.478;2023-07-30T05:17:54;2.75;;;1.50;;
36283;SDS011;56085;48.910;9.478;2023-07-30T05:20:19;3.53;;;1.83;;
36283;SDS011;56085;48.910;9.478;2023-07-30T05:22:44;3.92;;;1.83;;
36283;SDS011;56085;48.910;9.478;2023-07-30T05:25:09;4.22;;;2.28;;
36283;SDS011;56085;48.910;9.478;2023-07-30T05:27:35;5.35;;;2.20;;
36283;SDS011;56085;48.910;9.478;2023-07-30T05:30:01;2.90;;;2.03;;
36283;SDS011;56085;48.910;9.478;2023-07-30T05:32:26;2.75;;;1.98;;
36283;SDS011;56085;48.910;9.478;2023-07-30T05:34:51;2.85;;;1.60;;
36283;SDS011;56085;48.910;9.478;2023-07-30T05:37:17;3.08;;;1.77;;
36283;SDS011;56085;48.910;9.478;2023-07-30T05:39:42;4.85;;;2.13;;
36283;SDS011;56085;48.910;9.478;2023-07-30T05:42:07;3.90;;;1.85;;
36283;SDS011;56085;48.910;9.478;2023-07-30T05:44:34;5.53;;;1.95;;
36283;SDS011;56085;48.910;9.478;2023-07-30T05:46:59;4.30;;;2.10;;
36283;SDS011;56085;48.910;9.478;2023-07-30T05:49:24;3.50;;;2.20;;
36283;SDS011;56085;48.910;9.478;2023-07-30T05:51:50;4.15;;;2.38;;
36283;SDS011;56085;48.910;9.478;2023-07-30T05:54:16;4.28;;;2.50;;
36283;SDS011;56085;48.910;9.478;2023-07-30T05:56:42;3.33;;;2.17;;
36283;SDS011;56085;48.910;9.478;2023-07-30T05:59:07;4.57;;;1.92;;
36283;SDS011;56085;48.910;9.478;2023-07-30T06:01:32;2.80;;;1.90;;
36283;SDS011;56085;48.910;9.478;2023-07-30T06:03:57;5.63;;;1.75;;
36283;SDS011;56085;48.910;9.478;2023-07-30T06:06:23;2.60;;;1.67;;
36283;SDS011;56085;48.910;9.478;2023-07-30T06:08:52;4.10;;;1.80;;
36283;SDS011;56085;48.910;9.478;2023-07-30T06:11:19;2.42;;;1.55;;
36283;SDS011;56085;48.910;9.478;2023-07-30T06:13:44;4.28;;;1.88;;
36283;SDS011;56085;48.910;9.478;2023-07-30T06:16:09;2.38;;;1.13;;
36283;SDS011;56085;48.910;9.478;2023-07-30T06:18:35;2.30;;;1.23;;
36283;SDS011;56085;48.910;9.478;2023-07-30T06:21:00;4.32;;;1.52;;
36283;SDS011;56085;48.910;9.478;2023-07-30T06:23:25;2.03;;;1.20;;
36283;SDS011;56085;48.910;9.478;2023-07-30T06:25:51;2.90;;;1.15;;
36283;SDS011;56085;48.910;9.478;2023-07-30T06:28:16;8.73;;;1.85;;
36283;SDS011;56085;48.910;9.478;2023-07-30T06:30:41;2.40;;;1.42;;
36283;SDS011;56085;48.910;9.478;2023-07-30T06:33:06;2.55;;;1.25;;
36283;SDS011;56085;48.910;9.478;2023-07-30T06:35:32;2.22;;;1.45;;
36283;SDS011;56085;48.910;9.478;2023-07-30T06:37:57;1.25;;;0.90;;
36283;SDS011;56085;48.910;9.478;2023-07-30T06:40:22;1.98;;;1.20;;
36283;SDS011;56085;48.910;9.478;2023-07-30T06:42:48;2.30;;;1.23;;
36283;SDS011;56085;48.910;9.478;2023-07-30T06:45:13;1.80;;;0.93;;
36283;SDS011;56085;48.910;9.478;2023-07-30T06:47:38;1.73;;;1.15;;
36283;SDS011;56085;48.910;9.478;2023-07-30T06:50:04;4.43;;;1.50;;
36283;SDS011;56085;48.910;9.478;2023-07-30T06:52:30;1.95;;;1.15;;
36283;SDS011;56085;48.910;9.478;2023-07-30T06:54:55;1.60;;;1.15;;
36283;SDS011;56085;48.910;9.478;2023-07-30T06:57:21;2.40;;;1.30;;
36283;SDS011;56085;48.910;9.478;2023-07-30T06:59:46;1.40;;;0.95;;
36283;SDS011;56085;48.910;9.478;2023-07-30T07:02:12;4.45;;;1.50;;
36283;SDS011;56085;48.910;9.478;2023-07-30T07:04:37;4.82;;;1.30;;
36283;SDS011;56085;48.910;9.478;2023-07-30T07:07:02;1.73;;;0.93;;
36283;SDS011;56085;48.910;9.478;2023-07-30T07:09:28;1.70;;;1.00;;
36283;SDS011;56085;48.910;9.478;2023-07-30T07:11:54;1.95;;;0.90;;
36283;SDS011;56085;48.910;9.478;2023-07-30T07:14:19;2.08;;;0.90;;
36283;SDS011;56085;48.910;9.478;2023-07-30T07:16:44;1.45;;;0.90;;
36283;SDS011;56085;48.910;9.478;2023-07-30T07:19:10;2.03;;;1.08;;
36283;SDS011;56085;48.910;9.478;2023-07-30T07:21:36;1.60;;;0.82;;
36283;SDS011;56085;48.910;9.478;2023-07-30T07:24:01;2.38;;;1.20;;
36283;SDS011;56085;48.910;9.478;2023-07-30T07:26:26;2.20;;;1.27;;
36283;SDS011;56085;48.910;9.478;2023-07-30T07:28:51;1.63;;;1.02;;
36283;SDS011;56085;48.910;9.478;2023-07-30T07:31:17;1.63;;;0.90;;
36283;SDS011;56085;48.910;9.478;2023-07-30T07:33:44;3.17;;;1.08;;
36283;SDS011;56085;48.910;9.478;2023-07-30T07:36:10;3.25;;;0.88;;
36283;SDS011;56085;48.910;9.478;2023-07-30T07:38:35;2.78;;;1.00;;
36283;SDS011;56085;48.910;9.478;2023-07-30T07:41:00;1.85;;;1.00;;
36283;SDS011;56085;48.910;9.478;2023-07-30T07:43:26;1.58;;;0.85;;
36283;SDS011;56085;48.910;9.478;2023-07-30T07:45:51;1.25;;;0.85;;
36283;SDS011;56085;48.910;9.478;2023-07-30T07:48:17;1.77;;;0.85;;
36283;SDS011;56085;48.910;9.478;2023-07-30T07:50:42;2.40;;;1.35;;
36283;SDS011;56085;48.910;9.478;2023-07-30T07:53:08;5.28;;;2.03;;
36283;SDS011;56085;48.910;9.478;2023-07-30T07:55:33;2.92;;;1.80;;
36283;SDS011;56085;48.910;9.478;2023-07-30T07:57:58;3.03;;;1.70;;
36283;SDS011;56085;48.910;9.478;2023-07-30T08:00:23;3.10;;;1.60;;
36283;SDS011;56085;48.910;9.478;2023-07-30T08:02:49;2.90;;;1.88;;
36283;SDS011;56085;48.910;9.478;2023-07-30T08:05:14;3.95;;;1.42;;
36283;SDS011;56085;48.910;9.478;2023-07-30T08:07:40;2.38;;;1.33;;
36283;SDS011;56085;48.910;9.478;2023-07-30T08:10:05;2.67;;;1.50;;
36283;SDS011;56085;48.910;9.478;2023-07-30T08:12:31;2.55;;;1.30;;
36283;SDS011;56085;48.910;9.478;2023-07-30T08:14:57;2.67;;;1.20;;
36283;SDS011;56085;48.910;9.478;2023-07-30T08:17:23;2.90;;;1.20;;
36283;SDS011;56085;48.910;9.478;2023-07-30T08:19:49;1.65;;;0.93;;
36283;SDS011;56085;48.910;9.478;2023-07-30T08:22:14;2.08;;;1.05;;
36283;SDS011;56085;48.910;9.478;2023-07-30T08:24:39;1.73;;;1.05;;
36283;SDS011;56085;48.910;9.478;2023-07-30T08:27:05;1.75;;;1.05;;
36283;SDS011;56085;48.910;9.478;2023-07-30T08:29:30;1.63;;;1.10;;
36283;SDS011;56085;48.910;9.478;2023-07-30T08:31:55;1.58;;;1.15;;
36283;SDS011;56085;48.910;9.478;2023-07-30T08:34:21;3.10;;;1.20;;
36283;SDS011;56085;48.910;9.478;2023-07-30T08:36:47;3.90;;;1.60;;
36283;SDS011;56085;48.910;9.478;2023-07-30T08:39:13;2.00;;;1.30;;
36283;SDS011;56085;48.910;9.478;2023-07-30T08:41:38;3.05;;;1.60;;
36283;SDS011;56085;48.910;9.478;2023-07-30T08:44:04;3.45;;;1.75;;
36283;SDS011;56085;48.910;9.478;2023-07-30T08:46:29;2.50;;;1.10;;
36283;SDS011;56085;48.910;9.478;2023-07-30T08:48:55;2.42;;;1.10;;
36283;SDS011;56085;48.910;9.478;2023-07-30T08:51:22;2.38;;;1.27;;
36283;SDS011;56085;48.910;9.478;2023-07-30T08:53:48;3.22;;;1.42;;
36283;SDS011;56085;48.910;9.478;2023-07-30T08:56:13;1.80;;;1.25;;
36283;SDS011;56085;48.910;9.478;2023-07-30T08:58:40;2.25;;;1.50;;
36283;SDS011;56085;48.910;9.478;2023-07-30T09:01:08;1.52;;;1.00;;
36283;SDS011;56085;48.910;9.478;2023-07-30T09:03:36;3.58;;;1.50;;
36283;SDS011;56085;48.910;9.478;2023-07-30T09:06:03;2.03;;;1.17;;
36283;SDS011;56085;48.910;9.478;2023-07-30T09:08:29;4.15;;;1.33;;
36283;SDS011;56085;48.910;9.478;2023-07-30T09:10:55;3.08;;;1.42;;
36283;SDS011;56085;48.910;9.478;2023-07-30T09:13:20;2.78;;;1.52;;
36283;SDS011;56085;48.910;9.478;2023-07-30T09:15:48;3.00;;;1.65;;
36283;SDS011;56085;48.910;9.478;2023-07-30T09:18:16;2.30;;;1.40;;
36283;SDS011;56085;48.910;9.478;2023-07-30T09:20:43;2.30;;;1.50;;
36283;SDS011;56085;48.910;9.478;2023-07-30T09:23:08;1.73;;;1.30;;
36283;SDS011;56085;48.910;9.478;2023-07-30T09:25:35;3.55;;;1.75;;
36283;SDS011;56085;48.910;9.478;2023-07-30T09:28:02;2.35;;;1.35;;
36283;SDS011;56085;48.910;9.478;2023-07-30T09:30:27;3.72;;;1.70;;
36283;SDS011;56085;48.910;9.478;2023-07-30T09:32:56;2.72;;;1.52;;
36283;SDS011;56085;48.910;9.478;2023-07-30T09:35:23;3.65;;;1.70;;
36283;SDS011;56085;48.910;9.478;2023-07-30T09:38:01;2.47;;;1.60;;
36283;SDS011;56085;48.910;9.478;2023-07-30T09:40:34;3.00;;;1.70;;
36283;SDS011;56085;48.910;9.478;2023-07-30T09:43:02;2.45;;;1.52;;
36283;SDS011;56085;48.910;9.478;2023-07-30T09:45:28;1.95;;;1.40;;
36283;SDS011;56085;48.910;9.478;2023-07-30T09:47:57;3.33;;;1.80;;
36283;SDS011;56085;48.910;9.478;2023-07-30T09:50:22;3.85;;;1.90;;
36283;SDS011;56085;48.910;9.478;2023-07-30T09:52:48;6.35;;;2.08;;
36283;SDS011;56085;48.910;9.478;2023-07-30T09:55:14;3.30;;;1.40;;
36283;SDS011;56085;48.910;9.478;2023-07-30T09:57:40;2.67;;;1.30;;
36283;SDS011;56085;48.910;9.478;2023-07-30T10:00:06;4.30;;;1.52;;
36283;SDS011;56085;48.910;9.478;2023-07-30T10:02:37;2.42;;;1.45;;
36283;SDS011;56085;48.910;9.478;2023-07-30T10:05:07;4.07;;;1.70;;
36283;SDS011;56085;48.910;9.478;2023-07-30T10:07:35;5.57;;;1.75;;
36283;SDS011;56085;48.910;9.478;2023-07-30T10:10:03;5.97;;;2.10;;
36283;SDS011;56085;48.910;9.478;2023-07-30T10:12:31;4.95;;;1.50;;
36283;SDS011;56085;48.910;9.478;2023-07-30T10:15:00;2.55;;;1.33;;
36283;SDS011;56085;48.910;9.478;2023-07-30T10:17:25;3.03;;;1.42;;
36283;SDS011;56085;48.910;9.478;2023-07-30T10:19:51;3.58;;;2.25;;
36283;SDS011;56085;48.910;9.478;2023-07-30T10:22:23;3.75;;;1.98;;
36283;SDS011;56085;48.910;9.478;2023-07-30T10:25:03;4.90;;;2.28;;
36283;SDS011;56085;48.910;9.478;2023-07-30T10:27:35;2.65;;;1.88;;
36283;SDS011;56085;48.910;9.478;2023-07-30T10:30:12;3.33;;;1.92;;
36283;SDS011;56085;48.910;9.478;2023-07-30T10:32:42;4.78;;;1.60;;
36283;SDS011;56085;48.910;9.478;2023-07-30T10:35:35;3.95;;;1.70;;
36283;SDS011;56085;48.910;9.478;2023-07-30T10:38:11;4.53;;;1.75;;
36283;SDS011;56085;48.910;9.478;2023-07-30T10:43:34;3.30;;;1.67;;
36283;SDS011;56085;48.910;9.478;2023-07-30T10:46:01;3.15;;;1.75;;
36283;SDS011;56085;48.910;9.478;2023-07-30T10:48:34;3.95;;;1.73;;
36283;SDS011;56085;48.910;9.478;2023-07-30T10:51:07;3.42;;;1.50;;
36283;SDS011;56085;48.910;9.478;2023-07-30T10:53:34;3.03;;;1.77;;
36283;SDS011;56085;48.910;9.478;2023-07-30T10:56:04;2.30;;;1.60;;
36283;SDS011;56085;48.910;9.478;2023-07-30T10:58:31;2.25;;;1.73;;
36283;SDS011;56085;48.910;9.478;2023-07-30T11:00:58;4.18;;;1.70;;
36283;SDS011;56085;48.910;9.478;2023-07-30T11:03:24;3.35;;;1.70;;
36283;SDS011;56085;48.910;9.478;2023-07-30T11:05:51;5.35;;;1.98;;
36283;SDS011;56085;48.910;9.478;2023-07-30T11:08:17;2.70;;;1.70;;
36283;SDS011;56085;48.910;9.478;2023-07-30T11:10:45;3.08;;;1.75;;
36283;SDS011;56085;48.910;9.478;2023-07-30T11:13:13;2.88;;;1.73;;
36283;SDS011;56085;48.910;9.478;2023-07-30T11:15:42;3.10;;;1.60;;
36283;SDS011;56085;48.910;9.478;2023-07-30T11:18:09;5.22;;;1.88;;
36283;SDS011;56085;48.910;9.478;2023-07-30T11:20:35;2.63;;;1.50;;
36283;SDS011;56085;48.910;9.478;2023-07-30T11:23:01;3.67;;;1.52;;
36283;SDS011;56085;48.910;9.478;2023-07-30T11:25:27;3.67;;;1.70;;
36283;SDS011;56085;48.910;9.478;2023-07-30T11:27:52;2.38;;;1.40;;
36283;SDS011;56085;48.910;9.478;2023-07-30T11:30:18;3.65;;;1.80;;
36283;SDS011;56085;48.910;9.478;2023-07-30T11:32:44;2.75;;;1.58;;
36283;SDS011;56085;48.910;9.478;2023-07-30T11:35:10;4.85;;;1.83;;
36283;SDS011;56085;48.910;9.478;2023-07-30T11:37:37;2.58;;;1.50;;
36283;SDS011;56085;48.910;9.478;2023-07-30T11:40:06;2.70;;;1.65;;
36283;SDS011;56085;48.910;9.478;2023-07-30T11:42:33;3.28;;;1.70;;
36283;SDS011;56085;48.910;9.478;2023-07-30T11:45:00;4.32;;;1.63;;
36283;SDS011;56085;48.910;9.478;2023-07-30T11:47:42;2.80;;;1.70;;
36283;SDS011;56085;48.910;9.478;2023-07-30T11:50:08;5.05;;;1.63;;
36283;SDS011;56085;48.910;9.478;2023-07-30T11:52:33;3.15;;;1.65;;
36283;SDS011;56085;48.910;9.478;2023-07-30T11:55:04;3.00;;;1.38;;
36283;SDS011;56085;48.910;9.478;2023-07-30T11:57:36;2.53;;;1.60;;
36283;SDS011;56085;48.910;9.478;2023-07-30T12:00:02;3.63;;;1.63;;
36283;SDS011;56085;48.910;9.478;2023-07-30T12:02:28;2.85;;;1.33;;
36283;SDS011;56085;48.910;9.478;2023-07-30T12:04:54;4.00;;;1.50;;
36283;SDS011;56085;48.910;9.478;2023-07-30T12:07:22;5.75;;;1.77;;
36283;SDS011;56085;48.910;9.478;2023-07-30T12:09:55;3.88;;;1.55;;
36283;SDS011;56085;48.910;9.478;2023-07-30T12:12:20;2.75;;;1.50;;
36283;SDS011;56085;48.910;9.478;2023-07-30T12:17:15;2.97;;;1.90;;
36283;SDS011;56085;48.910;9.478;2023-07-30T12:19:41;3.92;;;1.70;;
36283;SDS011;56085;48.910;9.478;2023-07-30T12:22:06;3.92;;;1.45;;
36283;SDS011;56085;48.910;9.478;2023-07-30T12:24:31;3.05;;;1.50;;
36283;SDS011;56085;48.910;9.478;2023-07-30T12:26:57;2.20;;;1.27;;
36283;SDS011;56085;48.910;9.478;2023-07-30T12:29:22;2.92;;;1.58;;
36283;SDS011;56085;48.910;9.478;2023-07-30T12:31:48;2.63;;;1.60;;
36283;SDS011;56085;48.910;9.478;2023-07-30T12:34:13;3.25;;;1.48;;
36283;SDS011;56085;48.910;9.478;2023-07-30T12:36:40;2.25;;;1.42;;
36283;SDS011;56085;48.910;9.478;2023-07-30T12:39:05;3.75;;;1.90;;
36283;SDS011;56085;48.910;9.478;2023-07-30T12:41:30;5.53;;;1.63;;
36283;SDS011;56085;48.910;9.478;2023-07-30T12:43:56;5.63;;;2.03;;
36283;SDS011;56085;48.910;9.478;2023-07-30T12:46:22;4.18;;;1.58;;
36283;SDS011;56085;48.910;9.478;2023-07-30T12:48:47;2.83;;;1.30;;
36283;SDS011;56085;48.910;9.478;2023-07-30T12:51:12;2.38;;;1.17;;
36283;SDS011;56085;48.910;9.478;2023-07-30T12:53:38;3.60;;;1.30;;
36283;SDS011;56085;48.910;9.478;2023-07-30T12:56:03;3.08;;;1.58;;
36283;SDS011;56085;48.910;9.478;2023-07-30T12:58:28;1.38;;;0.95;;
36283;SDS011;56085;48.910;9.478;2023-07-30T13:00:54;2.38;;;1.30;;
36283;SDS011;56085;48.910;9.478;2023-07-30T13:03:19;1.88;;;1.02;;
36283;SDS011;56085;48.910;9.478;2023-07-30T13:05:44;3.10;;;1.60;;
36283;SDS011;56085;48.910;9.478;2023-07-30T13:08:09;2.28;;;1.38;;
36283;SDS011;56085;48.910;9.478;2023-07-30T13:10:35;4.18;;;1.20;;
36283;SDS011;56085;48.910;9.478;2023-07-30T13:13:00;5.93;;;1.45;;
36283;SDS011;56085;48.910;9.478;2023-07-30T13:15:26;2.60;;;1.40;;
36283;SDS011;56085;48.910;9.478;2023-07-30T13:17:52;2.45;;;1.23;;
36283;SDS011;56085;48.910;9.478;2023-07-30T13:20:18;2.15;;;1.30;;
36283;SDS011;56085;48.910;9.478;2023-07-30T13:22:43;2.67;;;1.13;;
36283;SDS011;56085;48.910;9.478;2023-07-30T13:25:08;2.15;;;1.08;;
36283;SDS011;56085;48.910;9.478;2023-07-30T13:27:34;1.98;;;0.85;;
36283;SDS011;56085;48.910;9.478;2023-07-30T13:29:59;5.40;;;1.10;;
36283;SDS011;56085;48.910;9.478;2023-07-30T13:32:24;1.90;;;1.27;;
36283;SDS011;56085;48.910;9.478;2023-07-30T13:34:49;3.40;;;1.10;;
36283;SDS011;56085;48.910;9.478;2023-07-30T13:37:15;1.50;;;0.90;;
36283;SDS011;56085;48.910;9.478;2023-07-30T13:39:40;2.33;;;1.10;;
36283;SDS011;56085;48.910;9.478;2023-07-30T13:42:05;2.75;;;0.80;;
36283;SDS011;56085;48.910;9.478;2023-07-30T13:44:31;2.05;;;1.05;;
36283;SDS011;56085;48.910;9.478;2023-07-30T13:46:56;2.08;;;1.20;;
36283;SDS011;56085;48.910;9.478;2023-07-30T13:49:22;2.33;;;1.10;;
36283;SDS011;56085;48.910;9.478;2023-07-30T13:51:47;2.72;;;1.40;;
36283;SDS011;56085;48.910;9.478;2023-07-30T13:54:12;2.73;;;1.10;;
36283;SDS011;56085;48.910;9.478;2023-07-30T13:56:38;2.58;;;1.27;;
36283;SDS011;56085;48.910;9.478;2023-07-30T13:59:03;1.98;;;0.98;;
36283;SDS011;56085;48.910;9.478;2023-07-30T14:01:29;3.00;;;1.30;;
36283;SDS011;56085;48.910;9.478;2023-07-30T14:03:54;2.95;;;1.33;;
36283;SDS011;56085;48.910;9.478;2023-07-30T14:06:20;2.55;;;1.20;;
36283;SDS011;56085;48.910;9.478;2023-07-30T14:08:45;3.55;;;1.30;;
36283;SDS011;56085;48.910;9.478;2023-07-30T14:11:10;4.22;;;1.92;;
36283;SDS011;56085;48.910;9.478;2023-07-30T14:13:36;4.68;;;1.50;;
36283;SDS011;56085;48.910;9.478;2023-07-30T14:16:01;2.85;;;1.52;;
36283;SDS011;56085;48.910;9.478;2023-07-30T14:18:26;2.97;;;1.45;;
36283;SDS011;56085;48.910;9.478;2023-07-30T14:20:52;2.55;;;1.08;;
36283;SDS011;56085;48.910;9.478;2023-07-30T14:23:17;3.38;;;1.45;;
36283;SDS011;56085;48.910;9.478;2023-07-30T14:25:43;3.53;;;1.20;;
36283;SDS011;56085;48.910;9.478;2023-07-30T14:28:08;3.90;;;1.30;;
36283;SDS011;56085;48.910;9.478;2023-07-30T14:30:34;2.78;;;1.50;;
36283;SDS011;56085;48.910;9.478;2023-07-30T14:33:00;2.17;;;1.38;;
36283;SDS011;56085;48.910;9.478;2023-07-30T14:35:26;2.92;;;1.50;;
36283;SDS011;56085;48.910;9.478;2023-07-30T14:37:52;3.97;;;1.20;;
36283;SDS011;56085;48.910;9.478;2023-07-30T14:40:17;2.60;;;1.27;;
36283;SDS011;56085;48.910;9.478;2023-07-30T14:42:43;3.83;;;1.38;;
36283;SDS011;56085;48.910;9.478;2023-07-30T14:45:08;2.97;;;0.93;;
36283;SDS011;56085;48.910;9.478;2023-07-30T14:47:34;4.65;;;1.55;;
36283;SDS011;56085;48.910;9.478;2023-07-30T14:49:59;4.03;;;1.23;;